Podhale (bahama Islands) — C6TX9 — position and weather

sailwx.info

Track history (hours):
 
Tides and Currents Weather Stations Pressure Air Temp Water Temp Dewpoint Dewpoint Depression Visibility Wind Speed Wind Dir Waves Ship Positions

Podhale (bahama Islands)

Last reported at 2017-Jan-17 05:22 UTC. Time now 2017-Jan-23 02:37 UTC.
Position N 28°57' W 012°50'.

Length 190 m; beam 24 m.

Type: Cargo ship. MMSI: 311831000.

Date/timePositionNaut miles runAvg speedWind from/ knotsBaromVisibWave heightAir tempDewpointWater temp
2017-Jan-17 05:22N 28°57' W 012°50'1112.9
2017-Jan-17 04:32N 28°49' W 012°58'1212.6
2017-Jan-17 03:33N 28°39' W 013°06'1312.8
2017-Jan-17 02:33N 28°28' W 013°14'1312.9
2017-Jan-17 01:32N 28°17' W 013°23'1312.9
2017-Jan-17 00:33N 28°07' W 013°31'1712.9
2017-Jan-16 23:15N 27°53' W 013°42'912.4
2017-Jan-16 22:33N 27°46' W 013°47'1713.0
2017-Jan-16 21:13N 27°31' W 013°58'913.3
2017-Jan-16 20:33N 27°24' W 014°04'1313.1
2017-Jan-16 19:33N 27°14' W 014°12'1313.3
2017-Jan-16 18:33N 27°03' W 014°21'1312.7
2017-Jan-16 17:33N 26°53' W 014°29'1313.0
2017-Jan-16 16:33N 26°42' W 014°38'  
Track history (hours):
 
Tides and Currents Weather Stations Pressure Air Temp Water Temp Dewpoint Dewpoint Depression Visibility Wind Speed Wind Dir Waves Ship Positions

Podhale (bahama Islands)

Last reported at 2017-Jan-17 05:22 UTC. Time now 2017-Jan-23 02:37 UTC.
Position N 28°57' W 012°50'.

Length 190 m; beam 24 m.

Type: Cargo ship. MMSI: 311831000.

Date/timePositionNaut miles runAvg speedWind from/ knotsBaromVisibWave heightAir tempDewpointWater temp
2017-Jan-17 05:22N 28°57' W 012°50'1112.9
2017-Jan-17 04:32N 28°49' W 012°58'1212.6
2017-Jan-17 03:33N 28°39' W 013°06'1312.8
2017-Jan-17 02:33N 28°28' W 013°14'1312.9
2017-Jan-17 01:32N 28°17' W 013°23'1312.9
2017-Jan-17 00:33N 28°07' W 013°31'1712.9
2017-Jan-16 23:15N 27°53' W 013°42'912.4
2017-Jan-16 22:33N 27°46' W 013°47'1713.0
2017-Jan-16 21:13N 27°31' W 013°58'913.3
2017-Jan-16 20:33N 27°24' W 014°04'1313.1
2017-Jan-16 19:33N 27°14' W 014°12'1313.3
2017-Jan-16 18:33N 27°03' W 014°21'1312.7
2017-Jan-16 17:33N 26°53' W 014°29'1313.0
2017-Jan-16 16:33N 26°42' W 014°38'  

Dump ship's entire track history